sensor_id;sensor_type;location;lat;lon;timestamp;temperature;humidity
50955;DHT22;36966;48.064;-0.792;2022-11-15T00:00:11;17.80;54.50
50955;DHT22;36966;48.064;-0.792;2022-11-15T00:02:30;17.80;54.50
50955;DHT22;36966;48.064;-0.792;2022-11-15T00:04:49;17.90;54.60
50955;DHT22;36966;48.064;-0.792;2022-11-15T00:07:08;17.80;54.60
50955;DHT22;36966;48.064;-0.792;2022-11-15T00:09:27;17.80;54.60
50955;DHT22;36966;48.064;-0.792;2022-11-15T00:11:46;17.80;54.60
50955;DHT22;36966;48.064;-0.792;2022-11-15T00:14:06;17.80;54.50
50955;DHT22;36966;48.064;-0.792;2022-11-15T00:16:25;17.80;54.60
50955;DHT22;36966;48.064;-0.792;2022-11-15T00:18:44;17.80;54.50
50955;DHT22;36966;48.064;-0.792;2022-11-15T00:21:10;17.80;54.60
50955;DHT22;36966;48.064;-0.792;2022-11-15T00:23:29;17.80;54.60
50955;DHT22;36966;48.064;-0.792;2022-11-15T00:25:55;17.80;54.60
50955;DHT22;36966;48.064;-0.792;2022-11-15T00:28:15;17.80;54.60
50955;DHT22;36966;48.064;-0.792;2022-11-15T00:30:34;17.80;54.60
50955;DHT22;36966;48.064;-0.792;2022-11-15T00:32:54;17.80;54.60
50955;DHT22;36966;48.064;-0.792;2022-11-15T00:35:13;17.80;54.60
50955;DHT22;36966;48.064;-0.792;2022-11-15T00:37:33;17.80;54.60
50955;DHT22;36966;48.064;-0.792;2022-11-15T00:39:52;17.80;54.60
50955;DHT22;36966;48.064;-0.792;2022-11-15T00:42:11;17.80;54.60
50955;DHT22;36966;48.064;-0.792;2022-11-15T00:44:30;17.80;54.60
50955;DHT22;36966;48.064;-0.792;2022-11-15T00:46:49;17.80;54.60
50955;DHT22;36966;48.064;-0.792;2022-11-15T00:49:08;17.80;54.60
50955;DHT22;36966;48.064;-0.792;2022-11-15T00:51:27;17.70;54.60
50955;DHT22;36966;48.064;-0.792;2022-11-15T00:53:46;17.80;54.60
50955;DHT22;36966;48.064;-0.792;2022-11-15T00:56:05;17.80;54.60
50955;DHT22;36966;48.064;-0.792;2022-11-15T00:58:25;17.80;54.70
50955;DHT22;36966;48.064;-0.792;2022-11-15T01:00:44;17.80;54.60
50955;DHT22;36966;48.064;-0.792;2022-11-15T01:03:03;17.80;54.60
50955;DHT22;36966;48.064;-0.792;2022-11-15T01:05:22;17.70;54.60
50955;DHT22;36966;48.064;-0.792;2022-11-15T01:07:42;17.80;54.60
50955;DHT22;36966;48.064;-0.792;2022-11-15T01:10:01;17.70;54.60
50955;DHT22;36966;48.064;-0.792;2022-11-15T01:12:20;17.70;54.60
50955;DHT22;36966;48.064;-0.792;2022-11-15T01:14:39;17.70;54.60
50955;DHT22;36966;48.064;-0.792;2022-11-15T01:16:58;17.70;54.60
50955;DHT22;36966;48.064;-0.792;2022-11-15T01:19:17;17.70;54.70
50955;DHT22;36966;48.064;-0.792;2022-11-15T01:21:37;17.70;54.60
50955;DHT22;36966;48.064;-0.792;2022-11-15T01:23:56;17.70;54.60
50955;DHT22;36966;48.064;-0.792;2022-11-15T01:26:16;17.70;54.70
50955;DHT22;36966;48.064;-0.792;2022-11-15T01:28:36;17.70;54.70
50955;DHT22;36966;48.064;-0.792;2022-11-15T01:31:00;17.70;54.60
50955;DHT22;36966;48.064;-0.792;2022-11-15T01:33:20;17.70;54.60
50955;DHT22;36966;48.064;-0.792;2022-11-15T01:35:39;17.70;54.60
50955;DHT22;36966;48.064;-0.792;2022-11-15T01:37:59;17.70;54.60
50955;DHT22;36966;48.064;-0.792;2022-11-15T01:40:18;17.70;54.60
50955;DHT22;36966;48.064;-0.792;2022-11-15T01:42:37;17.70;54.60
50955;DHT22;36966;48.064;-0.792;2022-11-15T01:44:56;17.70;54.60
50955;DHT22;36966;48.064;-0.792;2022-11-15T01:49:48;17.70;54.60
50955;DHT22;36966;48.064;-0.792;2022-11-15T01:52:13;17.70;54.60
50955;DHT22;36966;48.064;-0.792;2022-11-15T01:54:34;17.70;54.60
50955;DHT22;36966;48.064;-0.792;2022-11-15T01:57:01;17.70;54.60
50955;DHT22;36966;48.064;-0.792;2022-11-15T01:59:21;17.70;54.60
50955;DHT22;36966;48.064;-0.792;2022-11-15T02:01:41;17.70;54.60
50955;DHT22;36966;48.064;-0.792;2022-11-15T02:06:30;17.70;54.60
50955;DHT22;36966;48.064;-0.792;2022-11-15T02:08:50;17.70;54.60
50955;DHT22;36966;48.064;-0.792;2022-11-15T02:11:10;17.70;54.60
50955;DHT22;36966;48.064;-0.792;2022-11-15T02:13:29;17.70;54.60
50955;DHT22;36966;48.064;-0.792;2022-11-15T02:18:28;17.70;54.60
50955;DHT22;36966;48.064;-0.792;2022-11-15T02:23:37;17.70;54.60
50955;DHT22;36966;48.064;-0.792;2022-11-15T02:29:17;17.70;54.70
50955;DHT22;36966;48.064;-0.792;2022-11-15T02:32:27;17.70;54.70
50955;DHT22;36966;48.064;-0.792;2022-11-15T02:40:44;17.70;54.70
50955;DHT22;36966;48.064;-0.792;2022-11-15T02:43:11;17.70;54.70
50955;DHT22;36966;48.064;-0.792;2022-11-15T02:45:51;17.70;54.70
50955;DHT22;36966;48.064;-0.792;2022-11-15T02:48:12;17.70;54.80
50955;DHT22;36966;48.064;-0.792;2022-11-15T02:50:33;17.70;54.90
50955;DHT22;36966;48.064;-0.792;2022-11-15T02:52:53;17.70;54.80
50955;DHT22;36966;48.064;-0.792;2022-11-15T02:55:32;17.70;54.90
50955;DHT22;36966;48.064;-0.792;2022-11-15T03:00:20;17.70;54.90
50955;DHT22;36966;48.064;-0.792;2022-11-15T03:13:22;17.60;55.00
50955;DHT22;36966;48.064;-0.792;2022-11-15T03:18:33;17.60;54.90
50955;DHT22;36966;48.064;-0.792;2022-11-15T03:20:55;17.70;55.00
50955;DHT22;36966;48.064;-0.792;2022-11-15T03:23:15;17.70;55.00
50955;DHT22;36966;48.064;-0.792;2022-11-15T03:25:38;17.70;55.00
50955;DHT22;36966;48.064;-0.792;2022-11-15T03:28:01;17.70;55.00
50955;DHT22;36966;48.064;-0.792;2022-11-15T03:30:22;17.60;55.00
50955;DHT22;36966;48.064;-0.792;2022-11-15T03:32:49;17.60;55.00
50955;DHT22;36966;48.064;-0.792;2022-11-15T03:35:12;17.60;55.10
50955;DHT22;36966;48.064;-0.792;2022-11-15T03:37:37;17.60;55.10
50955;DHT22;36966;48.064;-0.792;2022-11-15T03:39:57;17.70;55.10
50955;DHT22;36966;48.064;-0.792;2022-11-15T03:42:33;17.70;55.10
50955;DHT22;36966;48.064;-0.792;2022-11-15T03:45:02;17.60;55.10
50955;DHT22;36966;48.064;-0.792;2022-11-15T03:47:32;17.60;55.20
50955;DHT22;36966;48.064;-0.792;2022-11-15T03:49:58;17.60;55.20
50955;DHT22;36966;48.064;-0.792;2022-11-15T03:52:19;17.60;55.20
50955;DHT22;36966;48.064;-0.792;2022-11-15T03:54:54;17.60;55.20
50955;DHT22;36966;48.064;-0.792;2022-11-15T03:57:13;17.60;55.20
50955;DHT22;36966;48.064;-0.792;2022-11-15T03:59:32;17.60;55.20
50955;DHT22;36966;48.064;-0.792;2022-11-15T04:01:51;17.60;55.30
50955;DHT22;36966;48.064;-0.792;2022-11-15T04:04:11;17.60;55.20
50955;DHT22;36966;48.064;-0.792;2022-11-15T04:06:30;17.60;55.20
50955;DHT22;36966;48.064;-0.792;2022-11-15T04:08:49;17.60;55.30
50955;DHT22;36966;48.064;-0.792;2022-11-15T04:11:08;17.60;55.30
50955;DHT22;36966;48.064;-0.792;2022-11-15T04:13:27;17.60;55.30
50955;DHT22;36966;48.064;-0.792;2022-11-15T04:15:47;17.60;55.30
50955;DHT22;36966;48.064;-0.792;2022-11-15T04:18:06;17.60;55.30
50955;DHT22;36966;48.064;-0.792;2022-11-15T04:20:28;17.60;55.40
50955;DHT22;36966;48.064;-0.792;2022-11-15T04:23:18;17.60;55.40
50955;DHT22;36966;48.064;-0.792;2022-11-15T04:25:58;17.60;55.50
50955;DHT22;36966;48.064;-0.792;2022-11-15T04:28:18;17.60;55.50
50955;DHT22;36966;48.064;-0.792;2022-11-15T04:30:37;17.60;55.50
50955;DHT22;36966;48.064;-0.792;2022-11-15T04:32:57;17.60;55.60
50955;DHT22;36966;48.064;-0.792;2022-11-15T04:35:16;17.60;55.60
50955;DHT22;36966;48.064;-0.792;2022-11-15T04:37:35;17.60;55.60
50955;DHT22;36966;48.064;-0.792;2022-11-15T04:39:54;17.60;55.60
50955;DHT22;36966;48.064;-0.792;2022-11-15T04:42:13;17.60;55.70
50955;DHT22;36966;48.064;-0.792;2022-11-15T04:44:33;17.60;55.60
50955;DHT22;36966;48.064;-0.792;2022-11-15T04:46:52;17.50;55.70
50955;DHT22;36966;48.064;-0.792;2022-11-15T04:49:11;17.60;55.80
50955;DHT22;36966;48.064;-0.792;2022-11-15T04:51:30;17.60;55.80
50955;DHT22;36966;48.064;-0.792;2022-11-15T04:53:50;17.60;55.80
50955;DHT22;36966;48.064;-0.792;2022-11-15T04:56:09;17.60;55.80
50955;DHT22;36966;48.064;-0.792;2022-11-15T04:58:28;17.60;55.80
50955;DHT22;36966;48.064;-0.792;2022-11-15T05:00:48;17.60;55.90
50955;DHT22;36966;48.064;-0.792;2022-11-15T05:03:09;17.50;55.90
50955;DHT22;36966;48.064;-0.792;2022-11-15T05:05:47;17.60;55.90
50955;DHT22;36966;48.064;-0.792;2022-11-15T05:08:06;17.60;56.00
50955;DHT22;36966;48.064;-0.792;2022-11-15T05:10:25;17.50;56.00
50955;DHT22;36966;48.064;-0.792;2022-11-15T05:12:44;17.60;56.00
50955;DHT22;36966;48.064;-0.792;2022-11-15T05:15:05;17.50;56.00
50955;DHT22;36966;48.064;-0.792;2022-11-15T05:17:25;17.50;56.10
50955;DHT22;36966;48.064;-0.792;2022-11-15T05:19:44;17.50;56.20
50955;DHT22;36966;48.064;-0.792;2022-11-15T05:22:03;17.50;56.20
50955;DHT22;36966;48.064;-0.792;2022-11-15T05:24:22;17.50;56.30
50955;DHT22;36966;48.064;-0.792;2022-11-15T05:26:41;17.60;56.30
50955;DHT22;36966;48.064;-0.792;2022-11-15T05:29:00;17.50;56.40
50955;DHT22;36966;48.064;-0.792;2022-11-15T05:31:20;17.50;56.50
50955;DHT22;36966;48.064;-0.792;2022-11-15T05:33:40;17.50;56.30
50955;DHT22;36966;48.064;-0.792;2022-11-15T05:36:07;17.60;56.50
50955;DHT22;36966;48.064;-0.792;2022-11-15T05:38:28;17.50;56.50
50955;DHT22;36966;48.064;-0.792;2022-11-15T05:40:48;17.60;56.60
50955;DHT22;36966;48.064;-0.792;2022-11-15T05:43:07;17.50;56.80
50955;DHT22;36966;48.064;-0.792;2022-11-15T05:45:28;17.50;56.90
50955;DHT22;36966;48.064;-0.792;2022-11-15T05:47:48;17.50;57.00
50955;DHT22;36966;48.064;-0.792;2022-11-15T05:50:08;17.60;57.10
50955;DHT22;36966;48.064;-0.792;2022-11-15T05:52:31;17.50;57.10
50955;DHT22;36966;48.064;-0.792;2022-11-15T05:54:55;17.50;57.10
50955;DHT22;36966;48.064;-0.792;2022-11-15T05:57:16;17.60;57.20
50955;DHT22;36966;48.064;-0.792;2022-11-15T05:59:36;17.50;57.10
50955;DHT22;36966;48.064;-0.792;2022-11-15T06:01:55;17.50;57.30
50955;DHT22;36966;48.064;-0.792;2022-11-15T06:04:14;17.50;57.40
50955;DHT22;36966;48.064;-0.792;2022-11-15T06:06:33;17.50;57.40
50955;DHT22;36966;48.064;-0.792;2022-11-15T06:08:52;17.50;57.40
50955;DHT22;36966;48.064;-0.792;2022-11-15T06:11:12;17.50;57.40
50955;DHT22;36966;48.064;-0.792;2022-11-15T06:13:31;17.50;57.50
50955;DHT22;36966;48.064;-0.792;2022-11-15T06:15:52;17.50;57.60
50955;DHT22;36966;48.064;-0.792;2022-11-15T06:18:13;17.50;57.60
50955;DHT22;36966;48.064;-0.792;2022-11-15T06:20:33;17.50;57.70
50955;DHT22;36966;48.064;-0.792;2022-11-15T06:22:59;17.50;57.70
50955;DHT22;36966;48.064;-0.792;2022-11-15T06:25:19;17.50;58.00
50955;DHT22;36966;48.064;-0.792;2022-11-15T06:27:38;17.50;58.00
50955;DHT22;36966;48.064;-0.792;2022-11-15T06:29:57;17.50;58.00
50955;DHT22;36966;48.064;-0.792;2022-11-15T06:32:16;17.50;58.10
50955;DHT22;36966;48.064;-0.792;2022-11-15T06:34:35;17.50;58.20
50955;DHT22;36966;48.064;-0.792;2022-11-15T06:36:54;17.50;58.30
50955;DHT22;36966;48.064;-0.792;2022-11-15T06:39:14;17.50;58.30
50955;DHT22;36966;48.064;-0.792;2022-11-15T06:41:36;17.50;58.30
50955;DHT22;36966;48.064;-0.792;2022-11-15T06:43:56;17.50;58.40
50955;DHT22;36966;48.064;-0.792;2022-11-15T06:46:15;17.50;58.40
50955;DHT22;36966;48.064;-0.792;2022-11-15T06:48:35;17.50;58.50
50955;DHT22;36966;48.064;-0.792;2022-11-15T06:50:57;17.50;58.50
50955;DHT22;36966;48.064;-0.792;2022-11-15T06:53:16;17.40;58.70
50955;DHT22;36966;48.064;-0.792;2022-11-15T06:55:36;17.50;58.60
50955;DHT22;36966;48.064;-0.792;2022-11-15T06:57:55;17.50;58.90
50955;DHT22;36966;48.064;-0.792;2022-11-15T07:00:15;17.40;58.90
50955;DHT22;36966;48.064;-0.792;2022-11-15T07:02:35;17.50;58.90
50955;DHT22;36966;48.064;-0.792;2022-11-15T07:04:54;17.40;58.80
50955;DHT22;36966;48.064;-0.792;2022-11-15T07:07:13;17.50;58.80
50955;DHT22;36966;48.064;-0.792;2022-11-15T07:09:32;17.50;58.80
50955;DHT22;36966;48.064;-0.792;2022-11-15T07:11:51;17.50;58.70
50955;DHT22;36966;48.064;-0.792;2022-11-15T07:14:10;17.40;59.00
50955;DHT22;36966;48.064;-0.792;2022-11-15T07:16:29;17.50;58.70
50955;DHT22;36966;48.064;-0.792;2022-11-15T07:18:49;17.50;59.00
50955;DHT22;36966;48.064;-0.792;2022-11-15T07:21:10;17.40;59.10
50955;DHT22;36966;48.064;-0.792;2022-11-15T07:23:29;17.40;59.10
50955;DHT22;36966;48.064;-0.792;2022-11-15T07:25:49;17.50;59.20
50955;DHT22;36966;48.064;-0.792;2022-11-15T07:28:08;17.50;59.00
50955;DHT22;36966;48.064;-0.792;2022-11-15T07:30:28;17.50;59.20
50955;DHT22;36966;48.064;-0.792;2022-11-15T07:32:48;17.40;59.00
50955;DHT22;36966;48.064;-0.792;2022-11-15T07:35:10;17.40;59.10
50955;DHT22;36966;48.064;-0.792;2022-11-15T07:37:30;17.40;59.40
50955;DHT22;36966;48.064;-0.792;2022-11-15T07:39:49;17.40;59.20
50955;DHT22;36966;48.064;-0.792;2022-11-15T07:42:09;17.40;59.40
50955;DHT22;36966;48.064;-0.792;2022-11-15T07:44:46;17.40;59.50
50955;DHT22;36966;48.064;-0.792;2022-11-15T07:47:06;17.40;59.60
50955;DHT22;36966;48.064;-0.792;2022-11-15T07:49:25;17.50;59.40
50955;DHT22;36966;48.064;-0.792;2022-11-15T07:51:44;17.50;59.50
50955;DHT22;36966;48.064;-0.792;2022-11-15T07:54:03;17.40;59.50
50955;DHT22;36966;48.064;-0.792;2022-11-15T07:56:22;17.50;59.40
50955;DHT22;36966;48.064;-0.792;2022-11-15T07:58:41;17.50;59.50
50955;DHT22;36966;48.064;-0.792;2022-11-15T08:01:07;17.40;59.60
50955;DHT22;36966;48.064;-0.792;2022-11-15T08:03:27;17.40;59.70
50955;DHT22;36966;48.064;-0.792;2022-11-15T08:05:50;17.40;59.70
50955;DHT22;36966;48.064;-0.792;2022-11-15T08:08:10;17.40;59.80
50955;DHT22;36966;48.064;-0.792;2022-11-15T08:10:30;17.40;60.00
50955;DHT22;36966;48.064;-0.792;2022-11-15T08:13:01;17.40;60.10
50955;DHT22;36966;48.064;-0.792;2022-11-15T08:15:20;17.40;60.00
50955;DHT22;36966;48.064;-0.792;2022-11-15T08:17:39;17.40;60.20
50955;DHT22;36966;48.064;-0.792;2022-11-15T08:19:59;17.40;60.10
50955;DHT22;36966;48.064;-0.792;2022-11-15T08:22:18;17.40;60.10
50955;DHT22;36966;48.064;-0.792;2022-11-15T08:24:38;17.40;60.20
50955;DHT22;36966;48.064;-0.792;2022-11-15T08:26:57;17.40;60.30
50955;DHT22;36966;48.064;-0.792;2022-11-15T08:29:16;17.40;60.40
50955;DHT22;36966;48.064;-0.792;2022-11-15T08:31:36;17.40;60.50
50955;DHT22;36966;48.064;-0.792;2022-11-15T08:33:55;17.40;60.50
50955;DHT22;36966;48.064;-0.792;2022-11-15T08:36:16;17.40;60.40
50955;DHT22;36966;48.064;-0.792;2022-11-15T08:38:36;17.40;60.50
50955;DHT22;36966;48.064;-0.792;2022-11-15T08:41:03;17.40;60.60
50955;DHT22;36966;48.064;-0.792;2022-11-15T08:43:23;17.40;60.70
50955;DHT22;36966;48.064;-0.792;2022-11-15T08:45:42;17.40;60.50
50955;DHT22;36966;48.064;-0.792;2022-11-15T08:48:02;17.40;60.70
50955;DHT22;36966;48.064;-0.792;2022-11-15T08:50:22;17.50;60.50
50955;DHT22;36966;48.064;-0.792;2022-11-15T08:52:41;17.50;60.70
50955;DHT22;36966;48.064;-0.792;2022-11-15T08:55:00;17.40;60.70
50955;DHT22;36966;48.064;-0.792;2022-11-15T08:57:19;17.50;60.70
50955;DHT22;36966;48.064;-0.792;2022-11-15T08:59:38;17.50;60.90
50955;DHT22;36966;48.064;-0.792;2022-11-15T09:01:57;17.50;60.80
50955;DHT22;36966;48.064;-0.792;2022-11-15T09:04:17;17.50;60.90
50955;DHT22;36966;48.064;-0.792;2022-11-15T09:06:36;17.40;61.10
50955;DHT22;36966;48.064;-0.792;2022-11-15T09:08:56;17.40;61.20
50955;DHT22;36966;48.064;-0.792;2022-11-15T09:11:15;17.40;61.40
50955;DHT22;36966;48.064;-0.792;2022-11-15T09:13:37;17.40;61.40
50955;DHT22;36966;48.064;-0.792;2022-11-15T09:16:00;17.40;61.20
50955;DHT22;36966;48.064;-0.792;2022-11-15T09:18:20;17.40;61.50
50955;DHT22;36966;48.064;-0.792;2022-11-15T09:20:41;17.40;61.20
50955;DHT22;36966;48.064;-0.792;2022-11-15T09:23:01;17.40;61.50
50955;DHT22;36966;48.064;-0.792;2022-11-15T09:25:21;17.50;61.60
50955;DHT22;36966;48.064;-0.792;2022-11-15T09:27:40;17.40;61.60
50955;DHT22;36966;48.064;-0.792;2022-11-15T09:30:00;17.40;61.60
50955;DHT22;36966;48.064;-0.792;2022-11-15T09:32:19;17.40;61.70
50955;DHT22;36966;48.064;-0.792;2022-11-15T09:34:38;17.40;61.70
50955;DHT22;36966;48.064;-0.792;2022-11-15T09:36:57;17.40;61.70
50955;DHT22;36966;48.064;-0.792;2022-11-15T09:39:16;17.40;62.00
50955;DHT22;36966;48.064;-0.792;2022-11-15T09:49:14;17.50;61.70
50955;DHT22;36966;48.064;-0.792;2022-11-15T09:51:38;17.50;61.60
50955;DHT22;36966;48.064;-0.792;2022-11-15T09:54:11;17.40;61.60
50955;DHT22;36966;48.064;-0.792;2022-11-15T09:56:41;17.50;61.60
50955;DHT22;36966;48.064;-0.792;2022-11-15T09:59:17;17.40;61.70
50955;DHT22;36966;48.064;-0.792;2022-11-15T10:04:27;17.40;62.00
50955;DHT22;36966;48.064;-0.792;2022-11-15T10:07:02;17.40;61.90
50955;DHT22;36966;48.064;-0.792;2022-11-15T10:10:07;17.50;62.00
50955;DHT22;36966;48.064;-0.792;2022-11-15T10:12:04;17.50;61.90
50955;DHT22;36966;48.064;-0.792;2022-11-15T10:14:26;17.50;61.90
50955;DHT22;36966;48.064;-0.792;2022-11-15T10:27:43;17.50;62.30
50955;DHT22;36966;48.064;-0.792;2022-11-15T10:30:08;17.40;62.30
50955;DHT22;36966;48.064;-0.792;2022-11-15T10:32:30;17.40;62.10
50955;DHT22;36966;48.064;-0.792;2022-11-15T10:34:51;17.40;62.60
50955;DHT22;36966;48.064;-0.792;2022-11-15T10:37:11;17.40;62.50
50955;DHT22;36966;48.064;-0.792;2022-11-15T10:39:30;17.40;62.40
50955;DHT22;36966;48.064;-0.792;2022-11-15T10:41:51;17.40;62.50
50955;DHT22;36966;48.064;-0.792;2022-11-15T10:46:38;17.40;62.50
50955;DHT22;36966;48.064;-0.792;2022-11-15T10:56:57;17.40;62.60
50955;DHT22;36966;48.064;-0.792;2022-11-15T10:59:25;17.40;62.80
50955;DHT22;36966;48.064;-0.792;2022-11-15T11:01:46;17.40;62.90
50955;DHT22;36966;48.064;-0.792;2022-11-15T11:04:09;17.40;62.80
50955;DHT22;36966;48.064;-0.792;2022-11-15T11:06:29;17.40;62.70
50955;DHT22;36966;48.064;-0.792;2022-11-15T11:08:57;17.40;62.70
50955;DHT22;36966;48.064;-0.792;2022-11-15T11:11:17;17.40;62.90
50955;DHT22;36966;48.064;-0.792;2022-11-15T11:13:39;17.40;62.90
50955;DHT22;36966;48.064;-0.792;2022-11-15T11:32:55;17.40;62.60
50955;DHT22;36966;48.064;-0.792;2022-11-15T11:35:29;17.50;62.50
50955;DHT22;36966;48.064;-0.792;2022-11-15T11:40:30;17.50;62.60
50955;DHT22;36966;48.064;-0.792;2022-11-15T11:48:51;17.50;62.60
50955;DHT22;36966;48.064;-0.792;2022-11-15T11:51:20;17.50;62.70
50955;DHT22;36966;48.064;-0.792;2022-11-15T11:53:53;17.50;62.70
50955;DHT22;36966;48.064;-0.792;2022-11-15T11:56:34;17.50;62.90
50955;DHT22;36966;48.064;-0.792;2022-11-15T11:58:57;17.50;62.80
50955;DHT22;36966;48.064;-0.792;2022-11-15T12:01:41;17.50;63.10
50955;DHT22;36966;48.064;-0.792;2022-11-15T12:04:50;17.50;62.90
50955;DHT22;36966;48.064;-0.792;2022-11-15T12:09:20;17.50;63.10
50955;DHT22;36966;48.064;-0.792;2022-11-15T12:14:44;17.50;63.20
50955;DHT22;36966;48.064;-0.792;2022-11-15T12:17:04;17.50;63.00
50955;DHT22;36966;48.064;-0.792;2022-11-15T12:19:23;17.50;63.10
50955;DHT22;36966;48.064;-0.792;2022-11-15T12:24:37;17.50;63.30
50955;DHT22;36966;48.064;-0.792;2022-11-15T12:29:48;17.50;63.60
50955;DHT22;36966;48.064;-0.792;2022-11-15T12:34:45;17.50;63.90
50955;DHT22;36966;48.064;-0.792;2022-11-15T12:37:59;17.50;63.90
50955;DHT22;36966;48.064;-0.792;2022-11-15T12:40:27;17.50;64.10
50955;DHT22;36966;48.064;-0.792;2022-11-15T12:45:39;17.50;64.20
50955;DHT22;36966;48.064;-0.792;2022-11-15T12:55:43;17.50;64.70
50955;DHT22;36966;48.064;-0.792;2022-11-15T12:58:28;17.50;64.60
50955;DHT22;36966;48.064;-0.792;2022-11-15T13:00:48;17.50;64.90
50955;DHT22;36966;48.064;-0.792;2022-11-15T13:03:22;17.50;64.80
50955;DHT22;36966;48.064;-0.792;2022-11-15T13:08:02;17.50;65.50
50955;DHT22;36966;48.064;-0.792;2022-11-15T13:12:51;17.50;65.80
50955;DHT22;36966;48.064;-0.792;2022-11-15T13:17:42;17.50;65.60
50955;DHT22;36966;48.064;-0.792;2022-11-15T13:22:41;17.50;65.80
50955;DHT22;36966;48.064;-0.792;2022-11-15T13:27:58;17.60;65.50
50955;DHT22;36966;48.064;-0.792;2022-11-15T13:30:22;17.60;65.50
50955;DHT22;36966;48.064;-0.792;2022-11-15T13:32:42;17.70;65.30
50955;DHT22;36966;48.064;-0.792;2022-11-15T13:35:01;17.70;65.30
50955;DHT22;36966;48.064;-0.792;2022-11-15T13:39:40;17.70;65.00
50955;DHT22;36966;48.064;-0.792;2022-11-15T13:41:59;17.70;65.00
50955;DHT22;36966;48.064;-0.792;2022-11-15T13:44:24;17.70;65.10
50955;DHT22;36966;48.064;-0.792;2022-11-15T13:46:44;17.70;65.10
50955;DHT22;36966;48.064;-0.792;2022-11-15T13:49:07;17.70;65.00
50955;DHT22;36966;48.064;-0.792;2022-11-15T13:51:30;17.70;65.20
50955;DHT22;36966;48.064;-0.792;2022-11-15T13:54:42;17.70;65.70
50955;DHT22;36966;48.064;-0.792;2022-11-15T13:56:45;17.70;65.30
50955;DHT22;36966;48.064;-0.792;2022-11-15T13:59:10;17.70;65.00
50955;DHT22;36966;48.064;-0.792;2022-11-15T14:01:33;17.70;65.10
50955;DHT22;36966;48.064;-0.792;2022-11-15T14:03:56;17.70;65.00
50955;DHT22;36966;48.064;-0.792;2022-11-15T14:06:19;17.70;65.10
50955;DHT22;36966;48.064;-0.792;2022-11-15T14:09:03;17.70;65.20
50955;DHT22;36966;48.064;-0.792;2022-11-15T14:11:20;17.70;65.10
50955;DHT22;36966;48.064;-0.792;2022-11-15T14:13:39;17.70;65.10
50955;DHT22;36966;48.064;-0.792;2022-11-15T14:16:20;17.70;65.10
50955;DHT22;36966;48.064;-0.792;2022-11-15T14:18:52;17.70;65.10
50955;DHT22;36966;48.064;-0.792;2022-11-15T14:21:12;17.70;65.00
50955;DHT22;36966;48.064;-0.792;2022-11-15T14:23:31;17.70;64.90
50955;DHT22;36966;48.064;-0.792;2022-11-15T14:25:58;17.70;65.00
50955;DHT22;36966;48.064;-0.792;2022-11-15T14:30:45;17.70;64.90
50955;DHT22;36966;48.064;-0.792;2022-11-15T14:33:28;17.70;64.80
50955;DHT22;36966;48.064;-0.792;2022-11-15T14:35:49;17.70;64.90
50955;DHT22;36966;48.064;-0.792;2022-11-15T14:38:09;17.70;64.80
50955;DHT22;36966;48.064;-0.792;2022-11-15T14:40:29;17.70;64.80
50955;DHT22;36966;48.064;-0.792;2022-11-15T14:42:49;17.70;64.80
50955;DHT22;36966;48.064;-0.792;2022-11-15T14:45:20;17.70;64.80
50955;DHT22;36966;48.064;-0.792;2022-11-15T14:47:41;17.70;64.80
50955;DHT22;36966;48.064;-0.792;2022-11-15T14:50:01;17.80;64.80
50955;DHT22;36966;48.064;-0.792;2022-11-15T14:52:24;17.70;64.80
50955;DHT22;36966;48.064;-0.792;2022-11-15T14:54:44;17.70;64.90
50955;DHT22;36966;48.064;-0.792;2022-11-15T14:57:03;17.70;65.10
50955;DHT22;36966;48.064;-0.792;2022-11-15T14:59:22;17.70;64.90
50955;DHT22;36966;48.064;-0.792;2022-11-15T15:01:42;17.70;64.90
50955;DHT22;36966;48.064;-0.792;2022-11-15T15:04:01;17.80;64.80
50955;DHT22;36966;48.064;-0.792;2022-11-15T15:06:20;17.70;65.00
50955;DHT22;36966;48.064;-0.792;2022-11-15T15:08:40;17.80;64.90
50955;DHT22;36966;48.064;-0.792;2022-11-15T15:10:59;17.70;64.80
50955;DHT22;36966;48.064;-0.792;2022-11-15T15:13:21;17.70;64.80
50955;DHT22;36966;48.064;-0.792;2022-11-15T15:15:41;17.70;64.80
50955;DHT22;36966;48.064;-0.792;2022-11-15T15:18:00;17.70;64.80
50955;DHT22;36966;48.064;-0.792;2022-11-15T15:20:20;17.70;64.80
50955;DHT22;36966;48.064;-0.792;2022-11-15T15:22:39;17.70;64.80
50955;DHT22;36966;48.064;-0.792;2022-11-15T15:24:59;17.70;64.70
50955;DHT22;36966;48.064;-0.792;2022-11-15T15:27:18;17.70;64.70
50955;DHT22;36966;48.064;-0.792;2022-11-15T15:29:37;17.70;64.70
50955;DHT22;36966;48.064;-0.792;2022-11-15T15:31:57;17.70;64.80
50955;DHT22;36966;48.064;-0.792;2022-11-15T15:34:16;17.70;64.90
50955;DHT22;36966;48.064;-0.792;2022-11-15T15:36:35;17.70;64.80
50955;DHT22;36966;48.064;-0.792;2022-11-15T15:38:54;17.70;64.90
50955;DHT22;36966;48.064;-0.792;2022-11-15T15:41:16;17.70;64.70
50955;DHT22;36966;48.064;-0.792;2022-11-15T15:43:36;17.80;64.70
50955;DHT22;36966;48.064;-0.792;2022-11-15T15:45:55;17.70;64.70
50955;DHT22;36966;48.064;-0.792;2022-11-15T15:48:16;17.70;64.70
50955;DHT22;36966;48.064;-0.792;2022-11-15T15:50:35;17.70;64.60
50955;DHT22;36966;48.064;-0.792;2022-11-15T15:52:59;17.70;64.60
50955;DHT22;36966;48.064;-0.792;2022-11-15T15:55:19;17.70;64.60
50955;DHT22;36966;48.064;-0.792;2022-11-15T15:57:39;17.70;64.60
50955;DHT22;36966;48.064;-0.792;2022-11-15T15:59:58;17.70;64.60
50955;DHT22;36966;48.064;-0.792;2022-11-15T16:02:17;17.70;64.50
50955;DHT22;36966;48.064;-0.792;2022-11-15T16:04:36;17.70;64.40
50955;DHT22;36966;48.064;-0.792;2022-11-15T16:06:59;17.70;64.30
50955;DHT22;36966;48.064;-0.792;2022-11-15T16:09:19;17.70;64.30
50955;DHT22;36966;48.064;-0.792;2022-11-15T16:12:02;17.70;64.20
50955;DHT22;36966;48.064;-0.792;2022-11-15T16:14:22;17.70;64.10
50955;DHT22;36966;48.064;-0.792;2022-11-15T16:16:41;17.70;64.10
50955;DHT22;36966;48.064;-0.792;2022-11-15T16:19:00;17.70;64.10
50955;DHT22;36966;48.064;-0.792;2022-11-15T16:21:20;17.70;64.00
50955;DHT22;36966;48.064;-0.792;2022-11-15T16:23:39;17.70;64.00
50955;DHT22;36966;48.064;-0.792;2022-11-15T16:25:58;17.70;64.00
50955;DHT22;36966;48.064;-0.792;2022-11-15T16:28:30;17.70;64.00
50955;DHT22;36966;48.064;-0.792;2022-11-15T16:31:00;17.70;63.90
50955;DHT22;36966;48.064;-0.792;2022-11-15T16:33:20;17.70;63.90
50955;DHT22;36966;48.064;-0.792;2022-11-15T16:35:40;17.70;63.90
50955;DHT22;36966;48.064;-0.792;2022-11-15T16:37:59;17.70;63.80
50955;DHT22;36966;48.064;-0.792;2022-11-15T16:40:26;17.70;63.80
50955;DHT22;36966;48.064;-0.792;2022-11-15T16:42:46;17.70;63.80
50955;DHT22;36966;48.064;-0.792;2022-11-15T16:45:05;17.70;63.70
50955;DHT22;36966;48.064;-0.792;2022-11-15T16:47:24;17.70;63.70
50955;DHT22;36966;48.064;-0.792;2022-11-15T16:49:43;17.70;63.70
50955;DHT22;36966;48.064;-0.792;2022-11-15T16:52:03;17.70;63.60
50955;DHT22;36966;48.064;-0.792;2022-11-15T16:54:22;17.60;63.70
50955;DHT22;36966;48.064;-0.792;2022-11-15T16:56:42;17.60;63.60